createdAt,value
2023-03-29T00:01:36.683Z,29.30
2023-03-29T00:04:07.042Z,28.70
2023-03-29T00:06:34.507Z,29.73
2023-03-29T00:09:05.218Z,28.50
2023-03-29T00:11:32.402Z,25.33
2023-03-29T00:13:59.566Z,20.13
2023-03-29T00:16:26.756Z,22.17
2023-03-29T00:18:53.989Z,23.20
2023-03-29T00:21:21.132Z,28.10
2023-03-29T00:23:48.327Z,32.13
2023-03-29T00:26:15.493Z,22.97
2023-03-29T00:28:42.623Z,22.23
2023-03-29T00:31:13.827Z,22.23
2023-03-29T00:33:41.416Z,26.33
2023-03-29T00:36:09.091Z,26.37
2023-03-29T00:38:36.336Z,24.27
2023-03-29T00:41:04.248Z,29.57
2023-03-29T00:43:31.600Z,26.47
2023-03-29T00:45:58.805Z,22.67
2023-03-29T00:48:27.907Z,28.87
2023-03-29T00:50:56.327Z,32.43
2023-03-29T00:53:26.584Z,33.50
2023-03-29T00:55:58.192Z,42.93
2023-03-29T00:58:26.961Z,36.33
2023-03-29T01:00:58.680Z,35.67
2023-03-29T01:03:27.463Z,32.03
2023-03-29T01:05:57.226Z,30.23
2023-03-29T01:08:27.991Z,37.97
2023-03-29T01:10:58.873Z,32.03
2023-03-29T01:13:27.787Z,33.83
2023-03-29T01:15:55.049Z,37.30
2023-03-29T01:18:23.123Z,30.27
2023-03-29T01:20:51.093Z,30.10
2023-03-29T01:23:21.315Z,28.03
2023-03-29T01:25:48.984Z,32.40
2023-03-29T01:28:17.425Z,30.50
2023-03-29T01:30:46.676Z,31.70
2023-03-29T01:33:21.149Z,29.87
2023-03-29T01:35:50.158Z,36.03
2023-03-29T01:38:22.594Z,30.90
2023-03-29T01:40:49.751Z,30.27
2023-03-29T01:43:25.281Z,36.47
2023-03-29T01:45:56.309Z,27.07
2023-03-29T01:48:28.129Z,37.27
2023-03-29T01:50:56.574Z,31.90
2023-03-29T01:53:24.686Z,34.00
2023-03-29T01:55:56.412Z,39.10
2023-03-29T01:58:24.654Z,39.80
2023-03-29T02:00:53.954Z,33.07
2023-03-29T02:03:21.888Z,32.23
2023-03-29T02:05:49.116Z,30.87
2023-03-29T02:08:16.284Z,31.47
2023-03-29T02:10:43.516Z,36.60
2023-03-29T02:13:10.633Z,36.93
2023-03-29T02:15:38.535Z,38.07
2023-03-29T02:18:06.905Z,52.73
2023-03-29T02:20:39.073Z,44.47
2023-03-29T02:23:09.502Z,51.93
2023-03-29T02:25:37.922Z,51.80
2023-03-29T02:28:05.682Z,51.27
2023-03-29T02:30:53.603Z,71.37
2023-03-29T02:33:35.255Z,61.03
2023-03-29T02:36:10.320Z,65.47
2023-03-29T02:38:38.966Z,64.97
2023-03-29T02:41:06.117Z,51.43
2023-03-29T02:43:33.393Z,34.53
2023-03-29T02:46:00.763Z,34.13
2023-03-29T02:48:28.018Z,51.77
2023-03-29T02:50:56.293Z,56.43
2023-03-29T02:53:24.244Z,49.33
2023-03-29T02:55:52.832Z,46.03
2023-03-29T02:58:20.663Z,46.07
2023-03-29T03:00:48.250Z,48.63
2023-03-29T03:03:15.680Z,38.60
2023-03-29T03:05:43.573Z,39.67
2023-03-29T03:08:10.806Z,35.53
2023-03-29T03:10:38.109Z,27.30
2023-03-29T03:13:05.310Z,39.33
2023-03-29T03:15:35.678Z,29.50
2023-03-29T03:18:06.325Z,32.73
2023-03-29T03:20:33.548Z,28.57
2023-03-29T03:23:03.267Z,31.27
2023-03-29T03:25:30.501Z,34.83
2023-03-29T03:27:57.712Z,32.70
2023-03-29T03:30:25.500Z,33.70
2023-03-29T03:32:54.933Z,34.07
2023-03-29T03:35:22.748Z,40.73
2023-03-29T03:37:50.006Z,35.20
2023-03-29T03:40:17.432Z,36.47
2023-03-29T03:42:44.624Z,34.53
2023-03-29T03:45:12.255Z,33.43
2023-03-29T03:47:39.526Z,29.90
2023-03-29T03:50:07.010Z,38.37
2023-03-29T03:52:34.177Z,39.50
2023-03-29T03:55:03.456Z,30.13
2023-03-29T03:57:33.052Z,31.60
2023-03-29T04:00:00.208Z,27.07
2023-03-29T04:02:27.594Z,22.47
2023-03-29T04:04:54.822Z,25.10
2023-03-29T04:07:21.952Z,29.17
2023-03-29T04:09:49.671Z,40.30
2023-03-29T04:12:16.827Z,41.17
2023-03-29T04:14:43.993Z,69.53
2023-03-29T04:17:11.167Z,43.03
2023-03-29T04:19:38.360Z,43.17
2023-03-29T04:22:05.929Z,79.60
2023-03-29T04:24:33.111Z,52.67
2023-03-29T04:27:00.296Z,43.50
2023-03-29T04:29:27.419Z,51.27
2023-03-29T04:31:56.459Z,43.80
2023-03-29T04:34:23.676Z,45.70
2023-03-29T04:36:50.859Z,58.40
2023-03-29T04:39:20.963Z,54.93
2023-03-29T04:41:48.516Z,57.37
2023-03-29T04:44:16.176Z,61.77
2023-03-29T04:46:43.455Z,80.10
2023-03-29T04:49:11.383Z,74.70
2023-03-29T04:51:39.117Z,78.10
2023-03-29T04:54:06.617Z,90.70
2023-03-29T04:56:33.794Z,86.63
2023-03-29T04:59:01.253Z,93.67
2023-03-29T05:01:29.034Z,100.73
2023-03-29T05:03:56.809Z,95.80
2023-03-29T05:06:24.076Z,130.53
2023-03-29T05:08:51.397Z,132.50
2023-03-29T05:11:19.721Z,115.27
2023-03-29T05:13:46.869Z,120.20
2023-03-29T05:16:14.057Z,81.93
2023-03-29T05:18:41.222Z,81.03
2023-03-29T05:21:09.471Z,84.17
2023-03-29T05:23:36.657Z,77.03
2023-03-29T05:26:04.102Z,81.07
2023-03-29T05:28:31.296Z,82.93
2023-03-29T05:31:05.803Z,81.47
2023-03-29T05:33:33.718Z,79.20
2023-03-29T05:36:07.895Z,92.20
2023-03-29T05:38:35.771Z,80.03
2023-03-29T05:41:03.076Z,90.53
2023-03-29T05:43:30.933Z,92.17
2023-03-29T05:45:58.155Z,92.10
2023-03-29T05:48:25.759Z,86.33
2023-03-29T05:50:53.769Z,70.43
2023-03-29T05:53:21.399Z,71.87
2023-03-29T05:55:48.621Z,53.77
2023-03-29T05:58:18.056Z,42.00
2023-03-29T06:00:45.243Z,48.50
2023-03-29T06:03:21.312Z,50.80
2023-03-29T06:05:49.940Z,48.07
2023-03-29T06:08:17.218Z,35.00
2023-03-29T06:10:44.641Z,38.17
2023-03-29T06:13:11.970Z,38.63
2023-03-29T06:15:39.093Z,26.73
2023-03-29T06:18:06.435Z,27.40
2023-03-29T06:20:33.625Z,24.73
2023-03-29T06:23:00.952Z,24.13
2023-03-29T06:25:28.107Z,41.87
2023-03-29T06:27:55.251Z,45.00
2023-03-29T06:30:22.461Z,41.17
2023-03-29T06:32:50.574Z,39.60
2023-03-29T06:35:18.356Z,29.17
2023-03-29T06:37:49.949Z,27.60
2023-03-29T06:40:19.243Z,29.87
2023-03-29T06:42:47.127Z,43.00
2023-03-29T06:45:14.555Z,29.17
2023-03-29T06:47:42.092Z,28.30
2023-03-29T06:50:09.469Z,26.97
2023-03-29T06:52:36.770Z,25.87
2023-03-29T06:55:07.416Z,26.90
2023-03-29T06:57:34.622Z,24.50
2023-03-29T07:00:01.862Z,28.53
2023-03-29T07:02:29.120Z,20.17
2023-03-29T07:04:56.378Z,18.13
2023-03-29T07:07:27.383Z,18.93
2023-03-29T07:09:55.449Z,24.67
2023-03-29T07:12:23.091Z,10.93
2023-03-29T07:14:50.325Z,17.53
2023-03-29T07:17:18.396Z,14.70
2023-03-29T07:19:46.868Z,17.33
2023-03-29T07:22:14.073Z,17.83
2023-03-29T07:24:41.360Z,19.13
2023-03-29T07:27:08.908Z,16.60
2023-03-29T07:29:36.137Z,20.33
2023-03-29T07:32:06.533Z,20.13
2023-03-29T07:34:33.703Z,22.33
2023-03-29T07:37:00.861Z,21.30
2023-03-29T07:39:28.308Z,18.80
2023-03-29T07:41:57.983Z,6.67
2023-03-29T07:44:27.051Z,7.93
2023-03-29T07:46:54.310Z,11.50
2023-03-29T07:49:22.302Z,6.80
2023-03-29T07:51:49.510Z,6.67
2023-03-29T07:54:16.800Z,5.80
2023-03-29T07:56:44.121Z,3.53
2023-03-29T07:59:11.623Z,3.90
2023-03-29T08:01:40.958Z,4.10
2023-03-29T08:04:08.487Z,4.10
2023-03-29T08:06:35.736Z,4.13
2023-03-29T08:09:02.936Z,3.40
2023-03-29T08:11:30.140Z,3.97
2023-03-29T08:13:59.032Z,2.07
2023-03-29T08:16:26.787Z,2.03
2023-03-29T08:18:54.011Z,4.23
2023-03-29T08:21:21.459Z,3.93
2023-03-29T08:23:48.684Z,3.27
2023-03-29T08:26:16.082Z,4.03
2023-03-29T08:28:43.263Z,3.10
2023-03-29T08:31:10.597Z,6.00
2023-03-29T08:33:37.870Z,3.10
2023-03-29T08:36:05.299Z,3.17
2023-03-29T08:38:32.507Z,2.93
2023-03-29T08:40:59.895Z,1.83
2023-03-29T08:43:45.949Z,3.47
2023-03-29T08:46:39.672Z,2.65
2023-03-29T08:49:07.016Z,3.30
2023-03-29T08:51:38.102Z,5.35
2023-03-29T08:54:08.371Z,3.88
2023-03-29T08:56:36.105Z,2.00
2023-03-29T08:59:03.442Z,3.10
2023-03-29T09:01:32.245Z,4.85
2023-03-29T09:04:09.766Z,3.50
2023-03-29T09:06:37.288Z,2.50
2023-03-29T09:09:04.539Z,2.88
2023-03-29T09:11:41.501Z,3.80
2023-03-29T09:14:14.721Z,3.45
2023-03-29T09:16:41.896Z,4.60
2023-03-29T09:19:27.710Z,3.35
2023-03-29T09:22:10.263Z,3.30
2023-03-29T09:24:55.460Z,3.17
2023-03-29T09:27:25.262Z,2.60
2023-03-29T09:29:55.599Z,4.32
2023-03-29T09:32:23.469Z,3.90
2023-03-29T09:34:54.906Z,4.78
2023-03-29T09:37:27.143Z,3.70
2023-03-29T09:39:55.809Z,2.20
2023-03-29T09:42:22.970Z,6.03
2023-03-29T09:44:53.699Z,3.05
2023-03-29T09:47:29.555Z,15.60
2023-03-29T09:50:00.672Z,3.40
2023-03-29T09:52:27.826Z,4.18
2023-03-29T09:54:55.010Z,3.25
2023-03-29T09:57:22.309Z,3.45
2023-03-29T09:59:50.445Z,4.22
2023-03-29T10:02:18.717Z,4.70
2023-03-29T10:04:45.868Z,2.83
2023-03-29T10:07:20.805Z,5.43
2023-03-29T10:09:48.012Z,5.20
2023-03-29T10:12:15.265Z,3.70
2023-03-29T10:14:43.627Z,3.28
2023-03-29T10:17:21.790Z,4.43
2023-03-29T10:19:52.528Z,3.70
2023-03-29T10:22:20.965Z,4.78
2023-03-29T10:24:48.779Z,3.88
2023-03-29T10:27:15.944Z,2.38
2023-03-29T10:29:43.464Z,4.15
2023-03-29T10:32:16.856Z,5.15
2023-03-29T10:34:44.381Z,2.20
2023-03-29T10:37:12.574Z,4.07
2023-03-29T10:39:39.916Z,2.85
2023-03-29T10:42:08.434Z,2.80
2023-03-29T10:44:36.576Z,3.50
2023-03-29T10:47:30.367Z,4.07
2023-03-29T10:50:01.508Z,4.30
2023-03-29T10:52:29.805Z,3.53
2023-03-29T10:54:57.001Z,2.63
2023-03-29T10:57:36.491Z,2.88
2023-03-29T11:00:16.784Z,2.17
2023-03-29T11:02:43.975Z,2.50
2023-03-29T11:05:22.599Z,4.80
2023-03-29T11:07:49.761Z,5.47
2023-03-29T11:10:24.745Z,1.40
2023-03-29T11:12:56.097Z,1.80
2023-03-29T11:15:23.272Z,1.67
2023-03-29T11:18:01.341Z,1.85
2023-03-29T11:20:40.991Z,2.55
2023-03-29T11:23:11.434Z,1.40
2023-03-29T11:25:38.578Z,2.25
2023-03-29T11:28:11.608Z,3.30
2023-03-29T11:30:49.226Z,4.03
2023-03-29T11:33:19.559Z,2.35
2023-03-29T11:35:47.277Z,1.75
2023-03-29T11:38:29.830Z,2.00
2023-03-29T11:41:02.856Z,2.63
2023-03-29T11:43:37.953Z,3.22
2023-03-29T11:46:11.254Z,4.38
2023-03-29T11:48:42.890Z,4.05
2023-03-29T11:51:11.711Z,4.07
2023-03-29T11:54:02.074Z,2.67
2023-03-29T11:56:32.021Z,2.50
2023-03-29T11:59:01.380Z,2.65
2023-03-29T12:01:34.616Z,2.70
2023-03-29T12:04:03.809Z,3.75
2023-03-29T12:06:37.355Z,3.85
2023-03-29T12:09:07.090Z,5.80
2023-03-29T12:11:38.747Z,1.52
2023-03-29T12:14:06.834Z,3.03
2023-03-29T12:16:35.977Z,2.20
2023-03-29T12:19:23.361Z,2.70
2023-03-29T12:21:50.844Z,5.82
2023-03-29T12:24:21.720Z,21.27
2023-03-29T12:26:55.158Z,4.47
2023-03-29T12:29:22.289Z,4.55
2023-03-29T12:31:49.506Z,4.15
2023-03-29T12:34:20.080Z,3.58
2023-03-29T12:37:03.475Z,2.38
2023-03-29T12:39:31.125Z,2.13
2023-03-29T12:42:14.610Z,2.90
2023-03-29T12:44:42.629Z,2.90
2023-03-29T12:47:10.616Z,2.05
2023-03-29T12:49:38.701Z,3.60
2023-03-29T12:52:24.731Z,2.30
2023-03-29T12:54:55.875Z,2.97
2023-03-29T12:57:27.549Z,2.28
2023-03-29T12:59:54.966Z,3.50
2023-03-29T13:02:22.175Z,3.33
2023-03-29T13:04:50.870Z,6.78
2023-03-29T13:07:23.872Z,5.18
2023-03-29T13:09:51.957Z,4.07
2023-03-29T13:12:19.273Z,6.03
2023-03-29T13:14:47.456Z,2.80
2023-03-29T13:17:21.250Z,2.58
2023-03-29T13:19:50.818Z,7.18
2023-03-29T13:22:18.188Z,5.22
2023-03-29T13:24:45.454Z,3.35
2023-03-29T13:27:25.245Z,5.20
2023-03-29T13:29:55.546Z,5.57
2023-03-29T13:32:27.157Z,3.33
2023-03-29T13:34:54.452Z,5.90
2023-03-29T13:37:40.050Z,6.20
2023-03-29T13:40:26.607Z,6.47
2023-03-29T13:43:00.544Z,10.65
2023-03-29T13:45:28.814Z,3.50
2023-03-29T13:48:22.732Z,5.22
2023-03-29T13:50:53.940Z,4.43
2023-03-29T13:53:23.878Z,6.13
2023-03-29T13:55:51.728Z,5.70
2023-03-29T13:58:31.286Z,3.38
2023-03-29T14:01:10.751Z,3.70
2023-03-29T14:03:41.436Z,5.45
2023-03-29T14:06:09.823Z,4.68
2023-03-29T14:08:41.020Z,6.95
2023-03-29T14:11:09.356Z,5.97
2023-03-29T14:13:36.479Z,18.98
2023-03-29T14:16:05.118Z,3.88
2023-03-29T14:18:37.295Z,6.53
2023-03-29T14:21:04.607Z,10.18
2023-03-29T14:23:32.792Z,9.18
2023-03-29T14:26:10.619Z,12.88
2023-03-29T14:28:37.745Z,6.32
2023-03-29T14:31:04.960Z,13.07
2023-03-29T14:33:34.637Z,4.70
2023-03-29T14:36:03.657Z,4.50
2023-03-29T14:38:31.432Z,11.88
2023-03-29T14:41:01.994Z,8.13
2023-03-29T14:43:30.974Z,25.00
2023-03-29T14:45:58.543Z,14.10
2023-03-29T14:48:25.893Z,7.93
2023-03-29T14:50:53.019Z,33.20
2023-03-29T14:53:21.113Z,14.23
2023-03-29T14:55:52.363Z,15.00
2023-03-29T14:58:29.608Z,10.85
2023-03-29T15:00:57.033Z,18.60
2023-03-29T15:03:27.107Z,10.57
2023-03-29T15:05:55.645Z,7.57
2023-03-29T15:08:33.086Z,7.78
2023-03-29T15:11:00.326Z,10.75
2023-03-29T15:13:28.324Z,9.00
2023-03-29T15:15:57.592Z,5.95
2023-03-29T15:18:27.630Z,4.93
2023-03-29T15:20:54.872Z,7.53
2023-03-29T15:23:23.427Z,10.02
2023-03-29T15:25:58.105Z,11.23
2023-03-29T15:28:27.708Z,5.43
2023-03-29T15:31:07.310Z,4.35
2023-03-29T15:33:36.678Z,4.72
2023-03-29T15:36:04.533Z,7.72
2023-03-29T15:38:40.880Z,6.75
2023-03-29T15:41:10.916Z,5.80
2023-03-29T15:43:38.128Z,31.23
2023-03-29T15:46:05.472Z,111.78
2023-03-29T15:48:33.817Z,59.05
2023-03-29T15:51:05.479Z,14.25
2023-03-29T15:53:33.800Z,13.40
2023-03-29T15:56:01.913Z,13.75
2023-03-29T15:58:32.669Z,12.52
2023-03-29T16:01:11.494Z,8.38
2023-03-29T16:03:39.263Z,7.03
2023-03-29T16:06:06.678Z,29.60
2023-03-29T16:08:33.877Z,9.48
2023-03-29T16:11:01.094Z,35.28
2023-03-29T16:13:28.236Z,17.90
2023-03-29T16:15:55.443Z,13.43
2023-03-29T16:18:22.548Z,8.68
2023-03-29T16:20:49.682Z,66.03
2023-03-29T16:23:16.852Z,63.90
2023-03-29T16:25:43.969Z,27.35
2023-03-29T16:28:11.325Z,24.48
2023-03-29T16:30:38.736Z,24.90
2023-03-29T16:33:09.167Z,27.25
2023-03-29T16:35:37.851Z,29.33
2023-03-29T16:38:05.308Z,40.20
2023-03-29T16:40:33.252Z,46.33
2023-03-29T16:43:00.542Z,55.63
2023-03-29T16:45:28.040Z,70.70
2023-03-29T16:47:56.083Z,54.95
2023-03-29T16:50:23.498Z,80.25
2023-03-29T16:52:53.632Z,63.60
2023-03-29T16:55:20.805Z,60.00
2023-03-29T16:57:48.534Z,59.50
2023-03-29T17:00:17.026Z,69.50
2023-03-29T17:02:44.510Z,61.45
2023-03-29T17:05:12.334Z,79.73
2023-03-29T17:07:39.794Z,73.57
2023-03-29T17:10:08.187Z,60.73
2023-03-29T17:12:35.473Z,51.47
2023-03-29T17:15:03.022Z,51.70
2023-03-29T17:17:30.210Z,44.57
2023-03-29T17:19:57.368Z,48.90
2023-03-29T17:22:24.859Z,49.70
2023-03-29T17:24:52.066Z,58.10
2023-03-29T17:27:19.250Z,51.87
2023-03-29T17:29:46.438Z,48.50
2023-03-29T17:32:13.576Z,43.53
2023-03-29T17:34:40.837Z,48.73
2023-03-29T17:37:07.997Z,68.40
2023-03-29T17:39:37.532Z,68.27
2023-03-29T17:42:05.338Z,59.87
2023-03-29T17:44:33.345Z,88.43
2023-03-29T17:47:01.191Z,105.63
2023-03-29T17:49:28.519Z,84.10
2023-03-29T17:51:55.788Z,109.13
2023-03-29T17:54:22.960Z,98.10
2023-03-29T17:56:50.559Z,95.33
2023-03-29T17:59:17.911Z,95.67
2023-03-29T18:01:45.808Z,89.07
2023-03-29T18:04:12.987Z,83.83
2023-03-29T18:06:40.203Z,80.50
2023-03-29T18:09:07.629Z,86.37
2023-03-29T18:11:36.345Z,92.37
2023-03-29T18:14:04.866Z,102.03
2023-03-29T18:16:32.018Z,113.17
2023-03-29T18:18:59.388Z,123.37
2023-03-29T18:21:27.500Z,112.63
2023-03-29T18:23:56.911Z,107.97
2023-03-29T18:26:25.080Z,106.60
2023-03-29T18:28:52.545Z,90.03
2023-03-29T18:31:19.950Z,80.27
2023-03-29T18:33:47.603Z,82.17
2023-03-29T18:36:14.922Z,89.17
2023-03-29T18:38:43.152Z,104.47
2023-03-29T18:41:12.145Z,142.90
2023-03-29T18:43:39.884Z,139.33
2023-03-29T18:46:07.850Z,128.87
2023-03-29T18:48:39.128Z,175.17
2023-03-29T18:51:09.762Z,171.07
2023-03-29T18:53:36.938Z,144.63
2023-03-29T18:56:06.514Z,146.40
2023-03-29T18:58:33.849Z,90.00
2023-03-29T19:01:05.205Z,99.03
2023-03-29T19:03:36.319Z,90.17
2023-03-29T19:06:03.912Z,80.87
2023-03-29T19:08:32.836Z,88.03
2023-03-29T19:11:03.398Z,84.43
2023-03-29T19:13:30.545Z,83.47
2023-03-29T19:15:57.778Z,92.87
2023-03-29T19:18:24.959Z,100.47
2023-03-29T19:20:54.068Z,120.93
2023-03-29T19:23:21.898Z,133.43
2023-03-29T19:25:56.161Z,131.70
2023-03-29T19:28:23.410Z,113.70
2023-03-29T19:30:50.581Z,114.23
2023-03-29T19:33:18.462Z,117.17
2023-03-29T19:35:45.763Z,104.23
2023-03-29T19:38:13.056Z,102.70
2023-03-29T19:40:40.483Z,79.30
2023-03-29T19:43:07.642Z,76.30
2023-03-29T19:45:34.752Z,84.37
2023-03-29T19:48:03.282Z,89.40
2023-03-29T19:50:31.958Z,86.77
2023-03-29T19:52:59.148Z,86.33
2023-03-29T19:55:27.294Z,87.37
2023-03-29T19:57:54.559Z,100.67
2023-03-29T20:00:25.054Z,82.83
2023-03-29T20:02:52.858Z,78.80
2023-03-29T20:05:20.275Z,86.60
2023-03-29T20:07:47.428Z,103.20
2023-03-29T20:10:14.608Z,90.50
2023-03-29T20:12:41.849Z,82.33
2023-03-29T20:15:09.389Z,73.43
2023-03-29T20:17:40.821Z,74.53
2023-03-29T20:20:10.076Z,74.83
2023-03-29T20:22:38.112Z,88.10
2023-03-29T20:25:05.791Z,88.80
2023-03-29T20:27:34.125Z,69.80
2023-03-29T20:30:01.318Z,73.67
2023-03-29T20:32:28.577Z,72.17
2023-03-29T20:34:55.869Z,88.47
2023-03-29T20:37:23.044Z,133.70
2023-03-29T20:39:50.538Z,124.27
2023-03-29T20:42:17.672Z,140.87
2023-03-29T20:44:50.470Z,229.93
2023-03-29T20:47:19.296Z,226.07
2023-03-29T20:49:46.551Z,201.97
2023-03-29T20:52:17.199Z,181.83
2023-03-29T20:54:44.897Z,133.40
2023-03-29T20:57:14.114Z,117.37
2023-03-29T20:59:41.621Z,113.20
2023-03-29T21:02:09.614Z,95.17
2023-03-29T21:04:36.855Z,101.00
2023-03-29T21:07:06.324Z,83.67
2023-03-29T21:09:34.321Z,68.27
2023-03-29T21:12:01.947Z,68.27
2023-03-29T21:14:30.240Z,68.77
2023-03-29T21:16:57.847Z,66.33
2023-03-29T21:19:24.974Z,48.87
2023-03-29T21:21:52.173Z,72.67
2023-03-29T21:24:19.600Z,81.10
2023-03-29T21:26:46.748Z,112.43
2023-03-29T21:29:14.152Z,69.43
2023-03-29T21:31:41.602Z,86.93
2023-03-29T21:34:09.008Z,84.17
2023-03-29T21:36:36.231Z,74.40
2023-03-29T21:39:03.632Z,63.83
2023-03-29T21:41:30.943Z,66.80
2023-03-29T21:43:58.084Z,63.73
2023-03-29T21:46:26.670Z,63.00
2023-03-29T21:48:53.854Z,48.70
2023-03-29T21:51:21.069Z,54.03
2023-03-29T21:53:48.255Z,44.30
2023-03-29T21:56:15.754Z,46.83
2023-03-29T21:58:43.098Z,100.87
2023-03-29T22:01:10.691Z,96.20
2023-03-29T22:03:38.543Z,79.53
2023-03-29T22:06:08.570Z,75.90
2023-03-29T22:08:38.828Z,77.77
2023-03-29T22:11:08.187Z,78.97
2023-03-29T22:13:35.659Z,66.17
2023-03-29T22:16:03.990Z,64.53
2023-03-29T22:18:42.281Z,66.07
2023-03-29T22:21:15.868Z,86.60
2023-03-29T22:23:43.153Z,98.80
2023-03-29T22:26:11.208Z,87.70
2023-03-29T22:28:38.477Z,64.03
2023-03-29T22:31:06.482Z,63.33
2023-03-29T22:33:34.058Z,65.80
2023-03-29T22:36:01.531Z,72.30
2023-03-29T22:38:29.032Z,70.30
2023-03-29T22:40:56.302Z,93.40
2023-03-29T22:43:23.515Z,83.37
2023-03-29T22:45:50.752Z,91.70
2023-03-29T22:48:18.028Z,94.33
2023-03-29T22:50:48.186Z,93.23
2023-03-29T22:53:15.609Z,95.93
2023-03-29T22:55:42.728Z,85.03
2023-03-29T22:58:09.921Z,87.43
2023-03-29T23:00:37.062Z,83.90
2023-03-29T23:03:04.326Z,98.87
2023-03-29T23:05:31.518Z,85.47
2023-03-29T23:07:58.652Z,79.17
2023-03-29T23:10:28.983Z,87.17
2023-03-29T23:13:13.617Z,87.37
2023-03-29T23:15:45.633Z,82.47
2023-03-29T23:18:13.154Z,86.83
2023-03-29T23:20:40.818Z,88.07
2023-03-29T23:23:08.441Z,83.00
2023-03-29T23:25:35.629Z,85.23
2023-03-29T23:28:02.756Z,93.23
2023-03-29T23:30:29.912Z,88.63
2023-03-29T23:32:58.261Z,94.03
2023-03-29T23:35:25.523Z,94.97
2023-03-29T23:37:53.033Z,89.90
2023-03-29T23:40:20.258Z,85.37
2023-03-29T23:42:48.354Z,91.20
2023-03-29T23:45:16.338Z,86.10
2023-03-29T23:47:44.158Z,87.77
2023-03-29T23:50:13.239Z,88.87
2023-03-29T23:52:40.925Z,96.33
2023-03-29T23:55:08.809Z,92.97
2023-03-29T23:57:37.052Z,90.43
